首页
METAR-TAF:

METAR-TAF

机场 :

South Jersey Regional Airport

Mount Holly, 新泽西州, 美国

纬度: 39-56-26N, 经度: 074-50-28W, 海拔: 16米

当前天气观测

该预报发布于42分钟前的18:54 UTC
风速11节,风向西,有时为20节阵风
温度 10°C
湿度 27%
气压 1024 hPa
能見度: 16.1公里
天空无云

METAR: KVAY 191854Z AUTO 28011G20KT 10SM CLR 10/M08 A3024 RMK AO2 SLP240 T01001083

时间: 14:36 (19:36 UTC)


TAF: 丢失

超过4000个机场的气象观测和天气预报(METAR&TAF报告)。

可查询的气象台以黄色和红色小点在地图上表示。

将鼠标移到小点上方,可查看气象台名称。

然后点击查看天气观测和预报。

如需切换地图:点击带黑十字的绿色按钮放大地图;点击带横线的绿色按钮缩小地图;或者点击绿色箭头查看邻近地区的地图。


METAR-TAF: